createdAt,value
2022-08-11T00:02:01.702Z,95326.06
2022-08-11T00:04:36.226Z,95324.00
2022-08-11T00:07:06.109Z,95325.25
2022-08-11T00:09:39.404Z,95336.53
2022-08-11T00:12:14.506Z,95326.06
2022-08-11T00:14:43.101Z,95330.22
2022-08-11T00:17:14.688Z,95328.03
2022-08-11T00:20:12.447Z,95332.38
2022-08-11T00:22:34.216Z,95331.16
2022-08-11T00:25:11.188Z,95334.91
2022-08-11T00:27:40.657Z,95329.38
2022-08-11T00:30:10.809Z,95328.16
2022-08-11T00:32:39.713Z,95339.09
2022-08-11T00:35:56.230Z,95330.78
2022-08-11T00:38:01.090Z,95335.75
2022-08-11T00:40:51.744Z,95332.97
2022-08-11T00:43:55.546Z,95332.25
2022-08-11T00:46:25.302Z,95328.19
2022-08-11T00:49:10.363Z,95336.25
2022-08-11T00:52:03.981Z,95332.25
2022-08-11T00:54:50.423Z,95325.19
2022-08-11T00:57:36.941Z,95338.03
2022-08-11T01:00:14.820Z,95344.47
2022-08-11T01:02:47.284Z,95345.16
2022-08-11T01:05:35.732Z,95345.84
2022-08-11T01:08:42.571Z,95349.31
2022-08-11T01:11:15.381Z,95353.03
2022-08-11T01:14:00.092Z,95345.97
2022-08-11T01:16:36.174Z,95345.59
2022-08-11T01:19:31.310Z,95342.38
2022-08-11T01:22:19.116Z,95345.59
2022-08-11T01:24:57.585Z,95335.66
2022-08-11T01:27:42.698Z,95347.19
2022-08-11T01:30:46.227Z,95336.88
2022-08-11T01:33:50.566Z,95333.56
2022-08-11T01:36:20.225Z,95340.13
2022-08-11T01:39:19.459Z,95336.25
2022-08-11T01:42:05.335Z,95340.59
2022-08-11T01:44:53.378Z,95333.81
2022-08-11T01:47:22.837Z,95340.84
2022-08-11T01:50:22.419Z,95335.50
2022-08-11T01:53:07.552Z,95325.03
2022-08-11T01:56:01.433Z,95327.13
2022-08-11T01:58:43.280Z,95326.13
2022-08-11T02:01:33.781Z,95329.28
2022-08-11T02:04:09.161Z,95323.09
2022-08-11T02:06:50.265Z,95325.97
2022-08-11T02:09:28.981Z,95334.81
2022-08-11T02:12:27.160Z,95330.75
2022-08-11T02:15:29.216Z,95337.69
2022-08-11T02:18:01.795Z,95337.47
2022-08-11T02:20:48.134Z,95330.38
2022-08-11T02:24:05.254Z,95335.75
2022-08-11T02:26:41.740Z,95331.13
2022-08-11T02:29:43.422Z,95328.94
2022-08-11T02:32:30.029Z,95325.91
2022-08-11T02:35:08.812Z,95330.25
2022-08-11T02:38:05.012Z,95331.63
2022-08-11T02:40:42.984Z,95335.75
2022-08-11T02:43:35.018Z,95336.13
2022-08-11T02:46:22.527Z,95340.16
2022-08-11T02:48:55.182Z,95339.38
2022-08-11T02:52:06.095Z,95337.38
2022-08-11T02:54:44.575Z,95335.03
2022-08-11T02:57:23.546Z,95337.19
2022-08-11T03:00:13.290Z,95337.19
2022-08-11T03:03:00.977Z,95343.81
2022-08-11T03:05:45.229Z,95351.50
2022-08-11T03:08:41.856Z,95349.25
2022-08-11T03:11:52.212Z,95344.84
2022-08-11T03:14:36.027Z,95345.69
2022-08-11T03:17:30.794Z,95345.25
2022-08-11T03:20:06.880Z,95344.94
2022-08-11T03:22:45.026Z,95342.75
2022-08-11T03:25:37.543Z,95336.88
2022-08-11T03:28:26.151Z,95341.13
2022-08-11T03:30:57.136Z,95339.63
2022-08-11T03:33:28.404Z,95340.34
2022-08-11T03:36:15.916Z,95342.00
2022-08-11T03:39:03.824Z,95344.44
2022-08-11T03:41:57.665Z,95346.94
2022-08-11T03:45:15.578Z,95356.41
2022-08-11T03:48:08.006Z,95352.09
2022-08-11T03:51:16.009Z,95356.44
2022-08-11T03:54:20.210Z,95352.38
2022-08-11T03:57:05.457Z,95354.28
2022-08-11T03:59:50.614Z,95342.56
2022-08-11T04:02:29.656Z,95350.00
2022-08-11T04:04:59.034Z,95346.88
2022-08-11T04:07:44.379Z,95349.31
2022-08-11T04:10:35.290Z,95349.59
2022-08-11T04:13:29.855Z,95360.63
2022-08-11T04:16:18.121Z,95359.91
2022-08-11T04:19:05.824Z,95364.97
2022-08-11T04:21:35.551Z,95359.50
2022-08-11T04:24:35.290Z,95358.59
2022-08-11T04:27:24.957Z,95361.59
2022-08-11T04:30:37.655Z,95362.25
2022-08-11T04:33:44.566Z,95367.34
2022-08-11T04:36:52.431Z,95372.22
2022-08-11T04:40:01.421Z,95367.59
2022-08-11T04:43:00.027Z,95373.53
2022-08-11T04:45:40.559Z,95367.06
2022-08-11T04:48:28.879Z,95373.81
2022-08-11T04:51:16.961Z,95374.59
2022-08-11T04:54:26.377Z,95380.75
2022-08-11T04:57:08.657Z,95380.19
2022-08-11T05:00:14.115Z,95374.59
2022-08-11T05:02:59.338Z,95388.41
2022-08-11T05:05:56.271Z,95386.94
2022-08-11T05:08:49.026Z,95389.69
2022-08-11T05:11:49.722Z,95385.38
2022-08-11T05:14:52.630Z,95388.78
2022-08-11T05:17:34.617Z,95396.84
2022-08-11T05:20:01.630Z,95390.97
2022-08-11T05:22:31.079Z,95381.66
2022-08-11T05:25:11.701Z,95388.06
2022-08-11T05:28:05.331Z,95384.84
2022-08-11T05:30:34.517Z,95390.31
2022-08-11T05:33:13.672Z,95387.75
2022-08-11T05:36:01.387Z,95387.47
2022-08-11T05:38:34.796Z,95383.75
2022-08-11T05:41:03.101Z,95391.00
2022-08-11T05:43:30.334Z,95382.41
2022-08-11T05:46:06.259Z,95388.47
2022-08-11T05:48:36.878Z,95389.56
2022-08-11T05:51:10.479Z,95394.50
2022-08-11T05:53:46.783Z,95391.13
2022-08-11T05:56:14.970Z,95402.25
2022-08-11T05:58:46.657Z,95405.97
2022-08-11T06:01:21.363Z,95404.03
2022-08-11T06:03:58.474Z,95413.97
2022-08-11T06:06:28.100Z,95412.00
2022-08-11T06:09:00.414Z,95408.81
2022-08-11T06:11:42.945Z,95408.22
2022-08-11T06:14:13.339Z,95408.88
2022-08-11T06:16:42.762Z,95401.31
2022-08-11T06:19:10.908Z,95398.28
2022-08-11T06:21:38.538Z,95404.84
2022-08-11T06:24:14.177Z,95404.44
2022-08-11T06:27:10.681Z,95401.69
2022-08-11T06:29:47.738Z,95403.50
2022-08-11T06:32:17.026Z,95395.72
2022-08-11T06:35:02.087Z,95410.72
2022-08-11T06:38:06.973Z,95408.34
2022-08-11T06:40:33.872Z,95407.22
2022-08-11T06:43:18.842Z,95404.97
2022-08-11T06:46:08.618Z,95404.81
2022-08-11T06:48:39.197Z,95397.25
2022-08-11T06:51:09.845Z,95402.25
2022-08-11T06:54:03.903Z,95404.50
2022-08-11T06:56:37.221Z,95392.75
2022-08-11T06:59:04.039Z,95390.72
2022-08-11T07:01:43.865Z,95398.16
2022-08-11T07:04:28.913Z,95392.19
2022-08-11T07:07:10.518Z,95383.00
2022-08-11T07:10:13.380Z,95385.38
2022-08-11T07:12:48.230Z,95386.41
2022-08-11T07:15:15.420Z,95383.13
2022-08-11T07:17:46.539Z,95385.97
2022-08-11T07:20:14.136Z,95382.84
2022-08-11T07:22:49.225Z,95384.59
2022-08-11T07:25:17.356Z,95390.16
2022-08-11T07:27:59.999Z,95393.84
2022-08-11T07:30:27.491Z,95380.59
2022-08-11T07:32:59.071Z,95379.50
2022-08-11T07:35:36.278Z,95381.56
2022-08-11T07:38:08.135Z,95378.22
2022-08-11T07:40:36.690Z,95372.94
2022-08-11T07:43:05.381Z,95384.09
2022-08-11T07:45:33.486Z,95383.56
2022-08-11T07:48:01.137Z,95387.81
2022-08-11T07:50:29.707Z,95379.88
2022-08-11T07:53:00.762Z,95368.31
2022-08-11T07:55:50.135Z,95370.88
2022-08-11T07:58:19.802Z,95377.31
2022-08-11T08:00:59.170Z,95381.19
2022-08-11T08:03:30.693Z,95371.22
2022-08-11T08:05:58.566Z,95369.16
2022-08-11T08:08:27.070Z,95365.53
2022-08-11T08:10:56.785Z,95370.16
2022-08-11T08:13:23.618Z,95365.31
2022-08-11T08:15:51.491Z,95362.59
2022-08-11T08:18:25.999Z,95365.72
2022-08-11T08:20:57.854Z,95359.84
2022-08-11T08:23:27.771Z,95358.09
2022-08-11T08:25:54.835Z,95355.78
2022-08-11T08:28:22.185Z,95361.19
2022-08-11T08:30:51.386Z,95353.94
2022-08-11T08:33:22.693Z,95355.75
2022-08-11T08:35:56.449Z,95354.88
2022-08-11T08:38:23.667Z,95361.41
2022-08-11T08:40:56.028Z,95363.47
2022-08-11T08:43:25.061Z,95357.72
2022-08-11T08:45:56.866Z,95360.38
2022-08-11T08:48:28.888Z,95359.00
2022-08-11T08:51:10.992Z,95357.00
2022-08-11T08:53:52.676Z,95355.25
2022-08-11T08:56:29.112Z,95357.16
2022-08-11T08:59:01.086Z,95357.53
2022-08-11T09:01:38.251Z,95347.75
2022-08-11T09:04:11.776Z,95357.16
2022-08-11T09:06:41.683Z,95352.28
2022-08-11T09:09:09.983Z,95343.41
2022-08-11T09:11:40.318Z,95346.63
2022-08-11T09:14:11.495Z,95344.69
2022-08-11T09:16:41.484Z,95347.19
2022-08-11T09:19:09.294Z,95351.31
2022-08-11T09:21:49.008Z,95345.34
2022-08-11T09:24:25.798Z,95348.53
2022-08-11T09:26:53.934Z,95344.72
2022-08-11T09:29:22.390Z,95342.84
2022-08-11T09:31:49.366Z,95342.38
2022-08-11T09:34:16.875Z,95343.53
2022-08-11T09:36:45.383Z,95353.53
2022-08-11T09:39:14.306Z,95350.66
2022-08-11T09:42:01.756Z,95344.00
2022-08-11T09:44:35.403Z,95340.88
2022-08-11T09:47:03.291Z,95342.81
2022-08-11T09:49:32.212Z,95343.44
2022-08-11T09:52:04.980Z,95338.19
2022-08-11T09:54:32.887Z,95338.59
2022-08-11T09:57:04.676Z,95330.19
2022-08-11T09:59:32.076Z,95329.09
2022-08-11T10:02:02.264Z,95333.03
2022-08-11T10:04:48.126Z,95327.78
2022-08-11T10:07:18.803Z,95323.81
2022-08-11T10:10:05.001Z,95321.88
2022-08-11T10:12:41.845Z,95321.56
2022-08-11T10:15:12.657Z,95317.09
2022-08-11T10:17:44.605Z,95316.13
2022-08-11T10:20:12.417Z,95315.31
2022-08-11T10:22:40.478Z,95312.81
2022-08-11T10:25:08.102Z,95300.78
2022-08-11T10:28:16.625Z,95305.28
2022-08-11T10:30:25.717Z,95309.78
2022-08-11T10:33:00.282Z,95298.41
2022-08-11T10:35:29.405Z,95297.53
2022-08-11T10:38:08.688Z,95293.69
2022-08-11T10:40:39.763Z,95290.78
2022-08-11T10:43:08.905Z,95286.78
2022-08-11T10:45:38.271Z,95285.50
2022-08-11T10:48:09.997Z,95287.41
2022-08-11T10:50:39.237Z,95290.31
2022-08-11T10:53:07.908Z,95281.69
2022-08-11T10:55:36.768Z,95278.34
2022-08-11T10:58:04.749Z,95277.31
2022-08-11T11:00:33.733Z,95279.88
2022-08-11T11:03:22.249Z,95273.44
2022-08-11T11:06:12.797Z,95278.69
2022-08-11T11:11:18.585Z,95259.47
2022-08-11T11:13:53.274Z,95255.22
2022-08-11T11:16:24.718Z,95252.34
2022-08-11T11:19:11.311Z,95251.84
2022-08-11T11:21:39.777Z,95256.28
2022-08-11T11:24:35.295Z,95241.16
2022-08-11T11:27:29.385Z,95238.41
2022-08-11T11:30:07.391Z,95244.94
2022-08-11T11:33:01.804Z,95237.09
2022-08-11T11:35:47.043Z,95232.97
2022-08-11T11:38:14.576Z,95236.56
2022-08-11T11:40:42.264Z,95234.97
2022-08-11T11:43:10.943Z,95237.69
2022-08-11T11:45:41.280Z,95227.09
2022-08-11T11:48:09.176Z,95232.78
2022-08-11T11:50:37.618Z,95227.59
2022-08-11T11:53:09.091Z,95225.00
2022-08-11T11:55:37.281Z,95224.09
2022-08-11T11:58:05.924Z,95217.94
2022-08-11T12:00:34.506Z,95221.69
2022-08-11T12:03:09.404Z,95211.94
2022-08-11T12:05:38.383Z,95208.09
2022-08-11T12:08:12.728Z,95219.41
2022-08-11T12:10:49.038Z,95222.81
2022-08-11T12:13:18.273Z,95214.28
2022-08-11T12:16:31.230Z,95210.84
2022-08-11T12:18:35.097Z,95213.19
2022-08-11T12:21:04.042Z,95212.81
2022-08-11T12:23:34.918Z,95209.97
2022-08-11T12:26:25.708Z,95207.59
2022-08-11T12:28:51.083Z,95198.03
2022-08-11T12:31:18.490Z,95197.56
2022-08-11T12:33:45.139Z,95203.31
2022-08-11T12:36:15.444Z,95195.63
2022-08-11T12:38:51.364Z,95190.47
2022-08-11T12:41:22.392Z,95189.38
2022-08-11T12:43:57.204Z,95188.03
2022-08-11T12:46:36.657Z,95187.22
2022-08-11T12:49:15.281Z,95178.63
2022-08-11T12:52:12.036Z,95173.78
2022-08-11T12:54:45.092Z,95167.25
2022-08-11T12:57:43.839Z,95167.19
2022-08-11T13:00:11.738Z,95162.03
2022-08-11T13:02:44.436Z,95156.47
2022-08-11T13:05:16.532Z,95152.00
2022-08-11T13:07:50.566Z,95157.06
2022-08-11T13:10:20.720Z,95141.63
2022-08-11T13:12:47.607Z,95150.44
2022-08-11T13:15:22.301Z,95147.75
2022-08-11T13:17:51.954Z,95140.31
2022-08-11T13:20:22.554Z,95141.06
2022-08-11T13:22:53.121Z,95133.09
2022-08-11T13:25:23.726Z,95119.78
2022-08-11T13:27:55.865Z,95133.28
2022-08-11T13:30:31.227Z,95129.28
2022-08-11T13:33:01.439Z,95122.69
2022-08-11T13:35:33.000Z,95122.91
2022-08-11T13:38:18.355Z,95118.88
2022-08-11T13:40:55.589Z,95122.38
2022-08-11T13:43:45.544Z,95119.75
2022-08-11T13:46:14.409Z,95123.38
2022-08-11T13:48:42.151Z,95109.44
2022-08-11T13:51:11.543Z,95116.25
2022-08-11T13:53:38.927Z,95101.84
2022-08-11T13:56:06.347Z,95099.81
2022-08-11T13:58:39.688Z,95091.63
2022-08-11T14:02:19.794Z,95093.97
2022-08-11T14:04:31.246Z,95089.94
2022-08-11T14:06:56.727Z,95095.16
2022-08-11T14:09:28.789Z,95088.34
2022-08-11T14:12:22.742Z,95082.25
2022-08-11T14:15:01.291Z,95080.69
2022-08-11T14:17:48.739Z,95075.59
2022-08-11T14:20:39.106Z,95073.34
2022-08-11T14:23:13.444Z,95082.94
2022-08-11T14:26:00.087Z,95071.69
2022-08-11T14:28:36.560Z,95071.56
2022-08-11T14:31:09.774Z,95073.97
2022-08-11T14:34:00.200Z,95060.41
2022-08-11T14:36:38.417Z,95067.13
2022-08-11T14:39:13.475Z,95065.63
2022-08-11T14:42:07.570Z,95061.25
2022-08-11T14:44:35.336Z,95050.78
2022-08-11T14:47:04.076Z,95045.63
2022-08-11T14:49:33.705Z,95044.38
2022-08-11T14:52:03.792Z,95042.47
2022-08-11T14:54:32.764Z,95047.19
2022-08-11T14:57:00.132Z,95042.97
2022-08-11T14:59:27.450Z,95051.53
2022-08-11T15:01:54.532Z,95036.13
2022-08-11T15:04:34.545Z,95039.53
2022-08-11T15:07:04.361Z,95033.31
2022-08-11T15:12:34.683Z,95027.25
2022-08-11T15:15:05.073Z,95026.38
2022-08-11T15:17:42.785Z,95026.91
2022-08-11T15:20:17.400Z,95028.97
2022-08-11T15:22:44.142Z,95024.44
2022-08-11T15:25:11.474Z,95017.19
2022-08-11T15:27:41.042Z,95024.09
2022-08-11T15:30:08.637Z,95035.28
2022-08-11T15:32:41.813Z,95015.00
2022-08-11T15:35:11.392Z,95021.78
2022-08-11T15:37:43.967Z,95022.50
2022-08-11T15:40:31.385Z,95011.94
2022-08-11T15:43:29.199Z,95018.03
2022-08-11T15:45:58.559Z,95019.88
2022-08-11T15:48:34.240Z,95013.50
2022-08-11T15:51:35.823Z,95012.59
2022-08-11T15:54:16.387Z,95000.06
2022-08-11T15:56:48.839Z,95005.59
2022-08-11T15:59:43.106Z,95009.88
2022-08-11T16:02:12.501Z,95006.38
2022-08-11T16:04:46.425Z,95001.28
2022-08-11T16:07:16.606Z,94995.63
2022-08-11T16:10:06.595Z,94994.78
2022-08-11T16:12:40.697Z,94997.38
2022-08-11T16:15:10.790Z,94999.47
2022-08-11T16:17:43.749Z,94994.38
2022-08-11T16:20:14.343Z,94988.72
2022-08-11T16:22:57.176Z,94988.63
2022-08-11T16:27:06.893Z,94981.31
2022-08-11T16:28:23.054Z,94981.72
2022-08-11T16:30:53.363Z,94971.06
2022-08-11T16:33:49.611Z,94982.13
2022-08-11T16:36:14.692Z,94981.16
2022-08-11T16:38:43.696Z,94968.47
2022-08-11T16:41:18.596Z,94962.88
2022-08-11T16:43:49.479Z,94961.81
2022-08-11T16:46:19.918Z,94967.19
2022-08-11T16:48:49.371Z,94964.34
2022-08-11T16:51:17.181Z,94963.53
2022-08-11T16:53:54.838Z,94959.44
2022-08-11T16:56:37.371Z,94960.41
2022-08-11T16:59:09.915Z,94966.00
2022-08-11T17:01:39.614Z,94965.59
2022-08-11T17:04:20.378Z,94963.28
2022-08-11T17:06:52.087Z,94959.56
2022-08-11T17:09:24.354Z,94957.53
2022-08-11T17:11:58.021Z,94956.56
2022-08-11T17:14:55.944Z,94953.22
2022-08-11T17:17:32.984Z,94956.50
2022-08-11T17:20:42.524Z,94952.75
2022-08-11T17:22:55.733Z,94946.28
2022-08-11T17:25:26.467Z,94952.13
2022-08-11T17:27:55.631Z,94959.22
2022-08-11T17:30:28.633Z,94955.22
2022-08-11T17:33:00.606Z,94953.03
2022-08-11T17:35:37.540Z,94954.78
2022-08-11T17:38:09.759Z,94955.84
2022-08-11T17:40:49.731Z,94942.25
2022-08-11T17:43:20.147Z,94955.19
2022-08-11T17:45:47.564Z,94951.47
2022-08-11T17:48:16.348Z,94964.78
2022-08-11T17:50:44.441Z,94959.59
2022-08-11T17:53:14.660Z,94965.34
2022-08-11T17:55:52.119Z,94961.88
2022-08-11T17:58:23.178Z,94961.78
2022-08-11T18:00:52.167Z,94960.59
2022-08-11T18:03:22.072Z,94966.81
2022-08-11T18:05:51.173Z,94959.72
2022-08-11T18:08:20.277Z,94950.69
2022-08-11T18:10:48.812Z,94960.13
2022-08-11T18:13:20.158Z,94964.88
2022-08-11T18:15:50.163Z,94958.22
2022-08-11T18:18:22.979Z,94965.34
2022-08-11T18:20:51.188Z,94961.06
2022-08-11T18:23:21.628Z,94974.31
2022-08-11T18:26:11.853Z,94969.22
2022-08-11T18:28:54.281Z,94977.72
2022-08-11T18:31:23.769Z,94968.97
2022-08-11T18:34:06.332Z,94963.41
2022-08-11T18:36:40.469Z,94970.09
2022-08-11T18:39:12.086Z,94970.91
2022-08-11T18:41:41.696Z,94964.78
2022-08-11T18:44:12.627Z,94974.19
2022-08-11T18:46:44.937Z,94970.56
2022-08-11T18:49:20.681Z,94974.59
2022-08-11T18:51:53.623Z,94971.38
2022-08-11T18:54:24.562Z,94976.91
2022-08-11T18:56:52.912Z,94980.25
2022-08-11T18:59:25.548Z,94984.03
2022-08-11T19:01:56.431Z,94976.28
2022-08-11T19:04:29.835Z,94988.41
2022-08-11T19:06:59.861Z,94994.31
2022-08-11T19:09:30.068Z,94991.13
2022-08-11T19:12:00.407Z,94987.44
2022-08-11T19:14:30.841Z,94995.97
2022-08-11T19:17:00.929Z,94994.84
2022-08-11T19:19:31.879Z,94980.81
2022-08-11T19:22:02.382Z,94996.66
2022-08-11T19:24:32.531Z,94990.66
2022-08-11T19:27:00.968Z,94997.81
2022-08-11T19:30:07.786Z,95004.31
2022-08-11T19:32:19.334Z,94994.59
2022-08-11T19:34:48.398Z,95001.81
2022-08-11T19:37:18.615Z,95003.53
2022-08-11T19:39:49.891Z,95002.94
2022-08-11T19:42:18.583Z,95008.84
2022-08-11T19:44:46.882Z,95010.13
2022-08-11T19:47:18.700Z,95019.22
2022-08-11T19:49:48.498Z,95006.13
2022-08-11T19:52:16.146Z,95015.41
2022-08-11T19:54:45.034Z,95006.50
2022-08-11T19:57:12.739Z,95013.50
2022-08-11T19:59:40.614Z,95010.34
2022-08-11T20:02:14.137Z,95011.06
2022-08-11T20:04:42.733Z,95029.19
2022-08-11T20:07:14.628Z,95026.97
2022-08-11T20:10:04.931Z,95027.16
2022-08-11T20:12:32.505Z,95024.31
2022-08-11T20:15:00.756Z,95023.66
2022-08-11T20:17:31.716Z,95028.91
2022-08-11T20:20:03.724Z,95027.34
2022-08-11T20:22:32.990Z,95030.06
2022-08-11T20:25:01.873Z,95033.53
2022-08-11T20:27:28.861Z,95026.53
2022-08-11T20:29:58.574Z,95043.88
2022-08-11T20:32:25.814Z,95040.53
2022-08-11T20:34:55.346Z,95037.22
2022-08-11T20:37:24.948Z,95036.06
2022-08-11T20:39:55.823Z,95035.13
2022-08-11T20:42:28.477Z,95039.28
2022-08-11T20:44:59.873Z,95044.69
2022-08-11T20:47:28.712Z,95043.53
2022-08-11T20:50:02.933Z,95045.31
2022-08-11T20:52:31.595Z,95058.03
2022-08-11T20:55:00.989Z,95044.81
2022-08-11T20:57:50.455Z,95046.91
2022-08-11T21:00:19.308Z,95039.09
2022-08-11T21:03:05.976Z,95040.53
2022-08-11T21:06:09.100Z,95051.03
2022-08-11T21:08:35.973Z,95044.63
2022-08-11T21:11:02.850Z,95051.09
2022-08-11T21:13:39.082Z,95042.34
2022-08-11T21:16:08.183Z,95046.31
2022-08-11T21:18:36.771Z,95043.63
2022-08-11T21:21:09.301Z,95043.16
2022-08-11T21:23:45.167Z,95046.66
2022-08-11T21:26:18.914Z,95044.41
2022-08-11T21:28:47.907Z,95042.66
2022-08-11T21:31:18.082Z,95050.44
2022-08-11T21:33:47.594Z,95042.66
2022-08-11T21:36:15.490Z,95051.34
2022-08-11T21:38:42.788Z,95051.63
2022-08-11T21:41:12.560Z,95047.03
2022-08-11T21:43:42.443Z,95050.69
2022-08-11T21:46:10.897Z,95044.78
2022-08-11T21:48:41.108Z,95042.09
2022-08-11T21:51:07.772Z,95045.94
2022-08-11T21:53:35.799Z,95043.41
2022-08-11T21:56:03.849Z,95045.75
2022-08-11T21:58:31.180Z,95041.19
2022-08-11T22:00:58.625Z,95047.72
2022-08-11T22:03:25.662Z,95038.88
2022-08-11T22:05:56.003Z,95042.31
2022-08-11T22:08:22.786Z,95045.13
2022-08-11T22:10:50.131Z,95044.75
2022-08-11T22:13:16.846Z,95040.19
2022-08-11T22:15:43.720Z,95043.47
2022-08-11T22:18:10.465Z,95044.69
2022-08-11T22:20:40.180Z,95044.16
2022-08-11T22:23:08.440Z,95052.41
2022-08-11T22:25:38.823Z,95058.78
2022-08-11T22:28:05.837Z,95060.09
2022-08-11T22:30:33.558Z,95057.00
2022-08-11T22:33:02.710Z,95055.91
2022-08-11T22:35:33.014Z,95055.59
2022-08-11T22:38:01.963Z,95046.69
2022-08-11T22:40:28.856Z,95052.88
2022-08-11T22:42:55.708Z,95046.25
2022-08-11T22:45:22.628Z,95049.97
2022-08-11T22:47:51.076Z,95050.88
2022-08-11T22:50:18.413Z,95050.38
2022-08-11T22:52:48.416Z,95043.22
2022-08-11T22:55:16.118Z,95051.84
2022-08-11T22:58:00.546Z,95052.44
2022-08-11T23:00:30.538Z,95056.28
2022-08-11T23:02:58.351Z,95066.53
2022-08-11T23:05:26.017Z,95057.22
2022-08-11T23:07:54.952Z,95064.41
2022-08-11T23:10:22.927Z,95066.81
2022-08-11T23:12:50.293Z,95069.25
2022-08-11T23:15:17.567Z,95076.41
2022-08-11T23:17:44.848Z,95077.22
2022-08-11T23:20:29.792Z,95068.81
2022-08-11T23:23:02.208Z,95081.03
2022-08-11T23:25:31.234Z,95084.28
2022-08-11T23:28:01.284Z,95079.63
2022-08-11T23:30:29.280Z,95074.91
2022-08-11T23:33:01.459Z,95070.72
2022-08-11T23:35:39.210Z,95074.84
2022-08-11T23:38:18.007Z,95070.00
2022-08-11T23:40:45.775Z,95072.84
2022-08-11T23:43:24.208Z,95083.09
2022-08-11T23:45:51.095Z,95071.41
2022-08-11T23:48:19.720Z,95080.72
2022-08-11T23:50:48.125Z,95069.13
2022-08-11T23:53:15.205Z,95079.84
2022-08-11T23:55:41.986Z,95064.28
2022-08-11T23:58:11.328Z,95063.50
